Terminal Aerodrome Forecast
Issued by NWS

Home | Current Version | Previous Version | Text Only | Print | Product List | Glossary On
Versions: 1 2 3 4 5 6 7 8 9 10 11 12
000
FTUS43 KAPX 192337
TAFMBL
TAF
KMBL 192337Z 2000/2024 VRB04KT P6SM FEW250
     FM200200 10004KT P6SM FEW250
     FM200600 12005KT 4SM BR BKN012
     FM201200 13005KT P6SM SCT008 BKN012
     FM201500 15006KT P6SM SCT035=

USA.gov is the U.S. government's official web portal to all federal, state and local government web resources and services.